Time;durP1;ratioP1;P1;durP2;ratioP2;P2;SDS_P1;SDS_P2;PMS_P1;PMS_P2;Temp;Humidity;BMP_temperature;BMP_pressure;BME280_temperature;BME280_humidity;BME280_pressure;Samples;Min_cycle;Max_cycle;Signal;HPM_P1;HPM_P2
2022/01/21 00:00:47;;;;;;;14.02;3.53;;;3.90;90.70;;;;;;5067248;28;20431;-68
2022/01/21 00:03:14;;;;;;;10.95;4.43;;;3.90;90.80;;;;;;5066926;28;20411;-68
2022/01/21 00:05:40;;;;;;;12.65;3.45;;;3.90;90.90;;;;;;5067481;28;20110;-68
2022/01/21 00:08:07;;;;;;;7.53;2.65;;;3.90;90.90;;;;;;5066720;28;20052;-68
2022/01/21 00:10:34;;;;;;;10.57;3.35;;;3.90;90.90;;;;;;5066914;28;20044;-68
2022/01/21 00:13:01;;;;;;;18.73;3.33;;;3.90;91.00;;;;;;5066455;28;20087;-67
2022/01/21 00:15:28;;;;;;;15.32;2.50;;;3.90;90.80;;;;;;5069849;28;20056;-68
2022/01/21 00:17:55;;;;;;;13.02;3.10;;;3.90;91.10;;;;;;5071226;28;20041;-69
2022/01/21 00:31:23;;;;;;;13.23;3.10;;;3.90;91.00;;;;;;5067591;28;20046;-68
2022/01/21 00:33:50;;;;;;;13.68;3.47;;;3.90;91.10;;;;;;5065420;28;20048;-68
2022/01/21 00:36:17;;;;;;;12.25;3.17;;;3.90;91.30;;;;;;5067439;28;20500;-68
2022/01/21 00:38:44;;;;;;;6.28;2.63;;;3.80;91.30;;;;;;5060273;28;20427;-68
2022/01/21 00:41:16;;;;;;;14.15;3.28;;;4.10;91.40;;;;;;5067767;28;20063;-69
2022/01/21 00:43:45;;;;;;;11.38;2.78;;;3.80;91.10;;;;;;5064739;28;20048;-68
2022/01/21 00:46:12;;;;;;;13.40;3.50;;;3.90;91.30;;;;;;5068120;28;20070;-67
2022/01/21 00:48:39;;;;;;;7.95;2.58;;;3.90;91.30;;;;;;5065193;28;20277;-68
2022/01/21 00:51:06;;;;;;;15.95;2.90;;;4.00;91.40;;;;;;5067898;28;20094;-67
2022/01/21 00:53:33;;;;;;;7.40;2.60;;;3.80;91.10;;;;;;5072195;28;20048;-67
2022/01/21 00:56:00;;;;;;;9.20;2.88;;;3.70;91.20;;;;;;5074968;28;20056;-69
2022/01/21 00:58:26;;;;;;;8.40;2.63;;;3.70;91.20;;;;;;5073215;28;20048;-67
2022/01/21 01:00:53;;;;;;;11.77;3.25;;;3.70;91.00;;;;;;5074435;28;20045;-67
2022/01/21 01:03:20;;;;;;;5.13;2.45;;;3.70;91.00;;;;;;5073963;28;20095;-68
2022/01/21 01:05:48;;;;;;;8.23;2.83;;;3.70;91.00;;;;;;5074288;28;20499;-68
2022/01/21 01:08:15;;;;;;;8.23;2.83;;;3.70;90.90;;;;;;5074620;28;20129;-67
2022/01/21 01:11:13;;;;;;;14.48;2.92;;;3.60;91.50;;;;;;5074410;28;20049;-67
2022/01/21 01:21:33;;;;;;;6.72;2.20;;;3.40;90.40;;;;;;5073014;28;20049;-67
2022/01/21 01:29:23;;;;;;;11.32;2.28;;;3.20;91.10;;;;;;5073044;28;20048;-67
2022/01/21 01:31:51;;;;;;;11.48;2.58;;;3.20;91.40;;;;;;5073148;28;20411;-68
2022/01/21 01:34:18;;;;;;;16.83;3.60;;;3.10;91.50;;;;;;5072689;28;20072;-67
2022/01/21 01:36:47;;;;;;;8.85;2.80;;;3.00;91.50;;;;;;5075513;28;20053;-67
2022/01/21 01:50:06;;;;;;;9.48;2.47;;;2.90;91.90;;;;;;5074108;28;20052;-68
2022/01/21 01:52:33;;;;;;;8.45;2.42;;;2.80;91.70;;;;;;5073349;28;20569;-68
2022/01/21 01:54:59;;;;;;;11.77;2.35;;;2.70;91.80;;;;;;5074212;28;20090;-68
2022/01/21 01:57:26;;;;;;;9.73;2.17;;;2.70;92.00;;;;;;5074156;28;20049;-68
2022/01/21 01:59:53;;;;;;;8.75;2.30;;;2.60;92.00;;;;;;5073221;28;20139;-68
2022/01/21 02:02:20;;;;;;;15.27;2.50;;;2.60;92.00;;;;;;5073478;28;20331;-68
2022/01/21 02:04:47;;;;;;;5.93;2.03;;;2.50;92.00;;;;;;5069330;28;20045;-68
2022/01/21 02:07:14;;;;;;;9.38;2.70;;;2.50;92.10;;;;;;5070937;28;20055;-67
2022/01/21 02:09:42;;;;;;;6.82;2.83;;;2.50;92.10;;;;;;5070284;28;20044;-67
2022/01/21 02:12:09;;;;;;;11.40;2.88;;;2.50;92.20;;;;;;5049041;28;20048;-68
2022/01/21 02:14:43;;;;;;;8.60;2.38;;;2.50;92.30;;;;;;5060362;28;20041;-68
2022/01/21 02:21:30;;;;;;;10.00;2.55;;;2.40;92.30;;;;;;5070604;28;20114;-68
2022/01/21 02:22:49;;;;;;;4.85;2.22;;;2.40;92.60;;;;;;5070358;28;20474;-68
2022/01/21 02:25:19;;;;;;;6.10;2.15;;;2.30;92.60;;;;;;5070251;28;20465;-68
2022/01/21 02:27:48;;;;;;;10.68;3.53;;;2.30;92.60;;;;;;5049585;28;20480;-68
2022/01/21 02:30:19;;;;;;;8.90;2.42;;;2.20;92.60;;;;;;5055982;28;20059;-68
2022/01/21 02:32:53;;;;;;;7.72;2.53;;;2.20;92.80;;;;;;5064536;28;20071;-68
2022/01/21 02:35:20;;;;;;;;;;;2.20;92.80;;;;;;5069954;28;20049;-68
2022/01/21 02:37:47;;;;;;;4.15;2.08;;;2.10;93.00;;;;;;5070293;28;19924;-68
2022/01/21 02:40:15;;;;;;;6.15;2.30;;;2.10;92.90;;;;;;5070084;28;20147;-68
2022/01/21 02:42:42;;;;;;;12.43;2.25;;;2.10;93.10;;;;;;5069870;28;20045;-67
2022/01/21 02:45:09;;;;;;;14.88;2.97;;;2.10;93.00;;;;;;5070238;28;20052;-68
2022/01/21 02:47:36;;;;;;;8.30;2.45;;;2.10;93.00;;;;;;5068340;28;20045;-68
2022/01/21 02:50:04;;;;;;;18.27;2.63;;;2.00;93.10;;;;;;5036412;28;20422;-68
2022/01/21 02:52:40;;;;;;;6.18;2.85;;;2.00;93.10;;;;;;5069312;28;20048;-67
2022/01/21 02:55:08;;;;;;;7.97;2.15;;;2.00;93.30;;;;;;5069111;28;20527;-68
2022/01/21 02:57:35;;;;;;;10.95;3.47;;;2.00;93.20;;;;;;5069340;28;20444;-67
2022/01/21 03:00:04;;;;;;;10.25;2.72;;;2.00;93.40;;;;;;5073292;28;20052;-67
2022/01/21 03:02:32;;;;;;;10.55;2.38;;;1.90;93.50;;;;;;5070176;28;20185;-69
2022/01/21 03:05:08;;;;;;;11.30;3.97;;;1.80;93.70;;;;;;5055975;28;20435;-66
2022/01/21 03:07:34;;;;;;;10.35;2.53;;;2.00;94.30;;;;;;5072755;28;20040;-67
2022/01/21 03:10:02;;;;;;;5.97;1.83;;;1.70;94.00;;;;;;5074307;28;20071;-71
2022/01/21 03:12:29;;;;;;;6.78;2.10;;;1.60;94.20;;;;;;5074334;28;20380;-67
2022/01/21 03:14:55;;;;;;;12.10;2.85;;;1.60;94.40;;;;;;5073639;28;20561;-69
2022/01/21 03:17:22;;;;;;;17.27;3.35;;;1.50;94.70;;;;;;5073223;28;20044;-68
2022/01/21 03:19:49;;;;;;;10.07;2.10;;;1.50;94.60;;;;;;5076070;28;20063;-67
2022/01/21 03:22:16;;;;;;;12.55;3.13;;;1.50;94.70;;;;;;5076192;28;20462;-67
2022/01/21 03:24:43;;;;;;;14.10;3.67;;;1.40;95.00;;;;;;5079091;28;20048;-68
2022/01/21 03:27:09;;;;;;;7.47;2.55;;;1.50;95.10;;;;;;5076155;28;20048;-67
2022/01/21 03:29:36;;;;;;;10.65;4.00;;;1.40;95.10;;;;;;5060976;28;20048;-67
2022/01/21 03:32:03;;;;;;;11.32;3.55;;;1.30;95.20;;;;;;5070979;28;20041;-68
2022/01/21 03:34:30;;;;;;;14.40;3.00;;;1.30;95.10;;;;;;5069402;28;20080;-68
2022/01/21 03:36:57;;;;;;;11.23;2.70;;;1.30;95.40;;;;;;5069585;28;20561;-67
2022/01/21 03:39:24;;;;;;;13.30;3.33;;;1.20;95.30;;;;;;5068850;28;20049;-67
2022/01/21 03:41:51;;;;;;;9.05;2.47;;;1.20;95.30;;;;;;5071105;28;20044;-69
2022/01/21 03:44:17;;;;;;;14.73;3.58;;;1.40;95.50;;;;;;5071796;28;20052;-68
2022/01/21 03:46:44;;;;;;;14.13;3.00;;;1.20;95.60;;;;;;5071872;28;20090;-67
2022/01/21 03:49:11;;;;;;;6.85;2.75;;;1.10;95.50;;;;;;5067990;28;20125;-68
2022/01/21 03:51:38;;;;;;;13.95;2.95;;;1.10;95.80;;;;;;5068920;28;20056;-67
2022/01/21 03:54:05;;;;;;;12.35;2.90;;;1.10;95.90;;;;;;5067785;28;20454;-68
2022/01/21 03:56:32;;;;;;;7.82;3.00;;;1.00;96.00;;;;;;5068475;28;20109;-67
2022/01/21 03:58:59;;;;;;;11.82;2.97;;;1.00;96.00;;;;;;5069268;28;20530;-68
2022/01/21 04:01:28;;;;;;;11.70;3.47;;;1.00;96.10;;;;;;5068156;28;20045;-67
2022/01/21 04:03:55;;;;;;;14.90;4.57;;;1.10;95.90;;;;;;5055852;28;20044;-68
2022/01/21 04:06:22;;;;;;;11.15;3.67;;;1.10;95.80;;;;;;5063140;28;20122;-68
2022/01/21 04:08:48;;;;;;;8.45;3.90;;;1.10;95.70;;;;;;5068029;28;20079;-68
2022/01/21 04:11:15;;;;;;;15.63;3.33;;;1.10;95.80;;;;;;5068335;28;20084;-68
2022/01/21 04:13:43;;;;;;;7.18;2.90;;;1.20;95.70;;;;;;5068598;28;20052;-67
2022/01/21 04:16:10;;;;;;;7.90;2.83;;;1.10;95.70;;;;;;5057663;28;20052;-68
2022/01/21 04:18:37;;;;;;;10.07;2.90;;;1.10;95.70;;;;;;5068210;28;20071;-67
2022/01/21 04:21:03;;;;;;;6.35;2.83;;;1.10;95.90;;;;;;5068599;28;20045;-68
2022/01/21 04:23:30;;;;;;;11.23;2.88;;;1.10;95.70;;;;;;5069719;28;20396;-68
2022/01/21 04:25:57;;;;;;;12.52;3.35;;;1.10;95.80;;;;;;5068259;28;20040;-67
2022/01/21 04:28:24;;;;;;;10.20;3.95;;;1.10;95.70;;;;;;5067955;28;20048;-67
2022/01/21 04:30:51;;;;;;;11.70;2.55;;;1.10;95.70;;;;;;5067028;28;20067;-68
2022/01/21 04:33:20;;;;;;;5.20;2.63;;;1.20;95.60;;;;;;5067138;28;20110;-68
2022/01/21 04:35:46;;;;;;;8.57;2.78;;;1.10;95.50;;;;;;5067696;28;20052;-68
2022/01/21 04:38:16;;;;;;;6.63;3.33;;;1.00;95.60;;;;;;5067808;28;20102;-68
2022/01/21 04:41:18;;;;;;;9.45;3.00;;;1.00;95.70;;;;;;5066032;28;20052;-67
2022/01/21 04:49:03;;;;;;;12.07;4.00;;;0.90;95.90;;;;;;5066990;28;20136;-67
2022/01/21 04:51:37;;;;;;;8.27;3.28;;;1.00;95.80;;;;;;5068376;28;20052;-67
2022/01/21 04:54:04;;;;;;;12.93;2.97;;;1.00;95.90;;;;;;5068529;28;20048;-67
2022/01/21 04:56:31;;;;;;;7.60;2.72;;;1.00;95.70;;;;;;5067976;28;20122;-67
2022/01/21 04:58:58;;;;;;;9.75;2.60;;;1.00;95.90;;;;;;5068407;28;20060;-66
2022/01/21 05:01:25;;;;;;;7.07;3.22;;;1.00;95.70;;;;;;5067387;28;20045;-67
2022/01/21 05:03:52;;;;;;;15.15;3.17;;;1.20;95.80;;;;;;5067653;28;20068;-67
2022/01/21 05:06:18;;;;;;;6.05;3.15;;;1.10;95.80;;;;;;5071623;28;20044;-67
2022/01/21 05:08:51;;;;;;;10.52;2.78;;;0.90;95.80;;;;;;5071585;28;20048;-67
2022/01/21 05:11:18;;;;;;;7.50;2.90;;;0.90;96.00;;;;;;5071282;28;20052;-67
2022/01/21 05:13:55;;;;;;;7.22;2.72;;;0.80;96.30;;;;;;5071313;28;20093;-67
2022/01/21 05:18:57;;;;;;;11.48;2.85;;;0.80;96.20;;;;;;5070699;28;20041;-67
2022/01/21 05:21:23;;;;;;;6.55;2.55;;;0.70;96.30;;;;;;5069830;28;20393;-67
2022/01/21 05:23:50;;;;;;;16.67;3.15;;;0.60;96.40;;;;;;5066349;28;20508;-67
2022/01/21 05:26:17;;;;;;;8.38;4.40;;;0.60;96.60;;;;;;5067002;28;20098;-68
2022/01/21 05:28:44;;;;;;;15.35;3.70;;;0.60;96.70;;;;;;5067522;28;20098;-67
2022/01/21 05:31:11;;;;;;;8.98;3.20;;;0.50;96.60;;;;;;5064902;28;20080;-68
2022/01/21 05:33:37;;;;;;;10.07;3.20;;;0.50;96.70;;;;;;5064699;28;20083;-67
2022/01/21 05:36:04;;;;;;;7.47;3.25;;;0.50;96.70;;;;;;5062162;28;20099;-68
2022/01/21 05:38:31;;;;;;;7.38;3.53;;;0.50;96.80;;;;;;5066120;28;20113;-68
2022/01/21 05:40:58;;;;;;;12.73;3.00;;;0.50;97.00;;;;;;5070498;28;20063;-68
2022/01/21 05:43:25;;;;;;;12.02;5.32;;;0.50;96.90;;;;;;5070215;28;20032;-69
2022/01/21 05:48:37;;;;;;;7.07;2.95;;;1.40;97.20;;;;;;5070500;28;20052;-68
2022/01/21 05:51:04;;;;;;;14.95;4.13;;;0.50;97.00;;;;;;5070117;28;20550;-67
2022/01/21 05:53:31;;;;;;;13.82;3.28;;;0.60;97.00;;;;;;5070124;28;20561;-67
2022/01/21 05:56:01;;;;;;;14.55;4.22;;;0.60;97.00;;;;;;5071582;28;20482;-67
2022/01/21 05:58:28;;;;;;;8.23;3.20;;;0.50;97.00;;;;;;5070316;28;20049;-67
2022/01/21 06:00:55;;;;;;;16.95;3.63;;;0.60;96.90;;;;;;5071127;28;20055;-68
2022/01/21 06:03:22;;;;;;;12.75;3.13;;;0.60;96.90;;;;;;5073169;28;20064;-68
2022/01/21 06:05:51;;;;;;;8.57;3.50;;;0.50;96.90;;;;;;5073893;28;20055;-68
2022/01/21 06:08:17;;;;;;;11.50;4.20;;;0.50;96.90;;;;;;5072788;28;20049;-69
2022/01/21 06:10:44;;;;;;;17.08;3.38;;;0.70;96.80;;;;;;5073947;28;20056;-69
2022/01/21 06:13:15;;;;;;;8.77;4.88;;;0.50;96.90;;;;;;5074029;28;20261;-67
2022/01/21 06:15:42;;;;;;;12.55;2.75;;;0.50;96.90;;;;;;5072520;28;20185;-67
2022/01/21 06:18:09;;;;;;;16.17;4.25;;;0.50;97.00;;;;;;5068795;28;20102;-67
2022/01/21 06:20:36;;;;;;;15.25;4.55;;;0.50;96.80;;;;;;5068913;28;20499;-67
2022/01/21 06:23:03;;;;;;;15.68;3.90;;;0.50;96.90;;;;;;5070086;28;20466;-67
2022/01/21 06:25:30;;;;;;;17.67;3.45;;;0.40;97.10;;;;;;5068945;28;20053;-67
2022/01/21 06:27:57;;;;;;;8.88;3.25;;;0.40;97.10;;;;;;5068710;28;20044;-67
2022/01/21 06:30:24;;;;;;;10.02;3.78;;;0.50;97.20;;;;;;5069596;28;20040;-67
2022/01/21 06:32:51;;;;;;;10.55;3.88;;;0.30;97.20;;;;;;5051942;28;20162;-67
2022/01/21 06:35:18;;;;;;;7.55;2.95;;;0.40;97.40;;;;;;5062192;28;20041;-66
2022/01/21 06:37:45;;;;;;;14.10;3.33;;;0.30;97.40;;;;;;5060571;28;20056;-67
2022/01/21 06:40:12;;;;;;;7.25;3.10;;;0.30;97.40;;;;;;5065044;28;20056;-67
2022/01/21 06:42:39;;;;;;;10.98;4.07;;;0.30;97.50;;;;;;5069213;28;20060;-67
2022/01/21 06:45:06;;;;;;;10.95;3.00;;;0.30;97.50;;;;;;5064671;28;20052;-66
2022/01/21 06:47:33;;;;;;;12.10;3.38;;;0.30;97.30;;;;;;5058630;28;20049;-67
2022/01/21 06:50:01;;;;;;;26.00;3.85;;;0.30;97.50;;;;;;5060650;28;20141;-67
2022/01/21 06:52:28;;;;;;;24.67;4.35;;;0.30;97.40;;;;;;5060760;28;20061;-67
2022/01/21 06:54:55;;;;;;;6.68;4.03;;;0.40;97.70;;;;;;5070713;28;20079;-67
2022/01/21 06:57:22;;;;;;;13.23;3.28;;;0.30;97.70;;;;;;5070376;28;20480;-68
2022/01/21 06:59:49;;;;;;;11.68;3.17;;;0.30;97.80;;;;;;5068361;28;20076;-68
2022/01/21 07:02:18;;;;;;;15.85;4.38;;;0.40;97.70;;;;;;5061380;28;20472;-68
2022/01/21 07:04:46;;;;;;;14.82;4.35;;;0.30;98.00;;;;;;5069240;28;20068;-68
2022/01/21 07:07:18;;;;;;;10.67;3.07;;;0.20;98.10;;;;;;5069314;28;20056;-68
2022/01/21 07:09:46;;;;;;;10.40;3.90;;;0.30;97.90;;;;;;5070015;28;20817;-68
2022/01/21 07:12:12;;;;;;;12.02;3.35;;;0.20;97.90;;;;;;5070122;28;20076;-68
2022/01/21 07:14:39;;;;;;;13.38;3.88;;;0.30;97.90;;;;;;5070264;28;20044;-67
2022/01/21 07:17:06;;;;;;;13.00;4.15;;;0.30;98.00;;;;;;5070779;28;20049;-67
2022/01/21 07:19:33;;;;;;;28.70;5.55;;;0.30;97.90;;;;;;5069288;28;20045;-68
2022/01/21 07:22:00;;;;;;;11.70;4.18;;;0.30;97.80;;;;;;5070452;28;20049;-67
2022/01/21 07:24:27;;;;;;;11.50;3.70;;;0.30;97.80;;;;;;5056092;28;20053;-67
2022/01/21 07:26:54;;;;;;;11.05;4.32;;;0.30;98.00;;;;;;5068701;28;20116;-67
2022/01/21 07:29:21;;;;;;;12.43;4.22;;;0.30;98.00;;;;;;5070138;28;20048;-68
2022/01/21 07:31:53;;;;;;;16.98;4.45;;;0.30;97.90;;;;;;5069140;28;20477;-67
2022/01/21 07:34:21;;;;;;;14.57;4.22;;;0.30;97.80;;;;;;5073168;28;20055;-67
2022/01/21 07:36:47;;;;;;;17.67;3.55;;;0.30;97.90;;;;;;5073776;28;20102;-66
2022/01/21 07:39:14;;;;;;;12.90;3.90;;;0.30;98.10;;;;;;5067217;28;20064;-67
2022/01/21 07:41:41;;;;;;;17.73;4.78;;;0.50;97.90;;;;;;5066034;28;20037;-67
2022/01/21 07:44:08;;;;;;;12.10;3.83;;;0.40;98.00;;;;;;5067459;28;20267;-69
2022/01/21 07:46:35;;;;;;;16.50;4.30;;;0.40;97.90;;;;;;5069313;28;20419;-67
2022/01/21 07:49:02;;;;;;;14.77;4.00;;;0.40;98.10;;;;;;5069077;28;20056;-66
2022/01/21 07:51:29;;;;;;;11.77;4.55;;;0.30;97.90;;;;;;5063098;28;20049;-66
2022/01/21 07:53:56;;;;;;;9.02;4.30;;;0.40;98.00;;;;;;5058762;28;20098;-66
2022/01/21 07:56:23;;;;;;;13.25;4.03;;;0.40;98.00;;;;;;5060749;28;20132;-65
2022/01/21 07:58:51;;;;;;;9.60;3.85;;;0.40;98.10;;;;;;5055727;28;20052;-66
2022/01/21 08:01:17;;;;;;;10.35;4.97;;;0.40;98.20;;;;;;5035606;28;20098;-66
2022/01/21 08:03:45;;;;;;;11.88;5.05;;;0.30;98.00;;;;;;5034396;28;20044;-67
2022/01/21 08:06:11;;;;;;;9.88;3.88;;;0.30;98.10;;;;;;5058805;28;20053;-67
2022/01/21 08:08:38;;;;;;;15.13;5.28;;;0.40;98.40;;;;;;5056443;28;20462;-66
2022/01/21 08:11:05;;;;;;;11.50;3.88;;;0.40;98.60;;;;;;5059449;28;20577;-67
2022/01/21 08:13:32;;;;;;;15.50;5.00;;;0.30;98.40;;;;;;5065511;28;20048;-66
2022/01/21 08:15:59;;;;;;;13.70;4.97;;;0.30;98.30;;;;;;5058880;28;20444;-66
2022/01/21 08:18:26;;;;;;;7.43;3.65;;;0.30;98.40;;;;;;5064056;28;20106;-66
2022/01/21 08:20:53;;;;;;;12.70;5.53;;;0.30;98.50;;;;;;5063781;28;20561;-66
2022/01/21 08:23:20;;;;;;;12.70;5.57;;;0.30;98.40;;;;;;5066576;28;20098;-66
2022/01/21 08:25:46;;;;;;;16.80;4.53;;;0.30;98.50;;;;;;5067745;28;20048;-67
2022/01/21 08:28:13;;;;;;;9.73;4.47;;;0.30;98.50;;;;;;5065821;28;20379;-66
2022/01/21 08:30:40;;;;;;;11.63;4.90;;;0.40;98.50;;;;;;5067549;28;20090;-65
2022/01/21 08:33:07;;;;;;;21.48;5.47;;;0.40;98.40;;;;;;5066354;28;20135;-65
2022/01/21 08:35:34;;;;;;;13.38;4.68;;;0.40;98.50;;;;;;5067224;28;20094;-65
2022/01/21 08:38:01;;;;;;;12.40;5.65;;;0.40;98.40;;;;;;5066865;28;20049;-65
2022/01/21 08:40:28;;;;;;;20.08;4.90;;;0.40;98.30;;;;;;5058999;28;20047;-66
2022/01/21 08:42:55;;;;;;;17.65;4.82;;;0.40;98.60;;;;;;5054481;28;20519;-65
2022/01/21 08:45:22;;;;;;;11.30;5.28;;;0.50;98.60;;;;;;5066925;28;20045;-66
2022/01/21 08:47:49;;;;;;;14.95;4.95;;;0.50;98.30;;;;;;5055457;28;20135;-66
2022/01/21 08:50:18;;;;;;;18.35;5.65;;;0.50;98.30;;;;;;5064289;28;20052;-66
2022/01/21 08:52:46;;;;;;;16.63;5.63;;;0.60;98.30;;;;;;5050635;28;20105;-66
2022/01/21 08:55:17;;;;;;;15.60;4.75;;;0.60;98.20;;;;;;5064234;28;20557;-66
2022/01/21 08:57:45;;;;;;;11.15;4.57;;;0.60;98.20;;;;;;5085744;28;20410;-65
2022/01/21 09:00:16;;;;;;;13.48;4.75;;;0.70;98.10;;;;;;5065027;28;20041;-66
2022/01/21 09:02:43;;;;;;;17.73;6.15;;;0.70;98.10;;;;;;5064621;28;20383;-66
2022/01/21 09:05:10;;;;;;;16.58;6.05;;;0.70;98.00;;;;;;5065390;28;20541;-65
2022/01/21 09:07:37;;;;;;;16.77;6.35;;;0.70;98.10;;;;;;5064691;28;20045;-66
2022/01/21 09:10:05;;;;;;;19.98;7.13;;;0.80;98.40;;;;;;5064908;28;20136;-65
2022/01/21 09:12:32;;;;;;;28.15;6.03;;;0.90;98.40;;;;;;5048046;28;20508;-66
2022/01/21 09:14:58;;;;;;;13.73;5.70;;;0.90;98.10;;;;;;5067448;28;20049;-65
2022/01/21 09:17:26;;;;;;;21.85;5.72;;;0.90;98.00;;;;;;5066880;28;20076;-65
2022/01/21 09:19:52;;;;;;;19.25;5.35;;;0.90;98.20;;;;;;5050073;28;20083;-65
2022/01/21 09:22:19;;;;;;;13.52;4.43;;;0.90;98.20;;;;;;5069245;28;20041;-65
2022/01/21 09:24:46;;;;;;;16.33;6.78;;;1.00;98.20;;;;;;5068472;28;20533;-66
2022/01/21 09:27:13;;;;;;;19.27;7.07;;;0.90;98.30;;;;;;5069733;28;20057;-64
2022/01/21 09:29:41;;;;;;;15.35;6.13;;;1.00;98.20;;;;;;5069109;28;20090;-67
2022/01/21 09:32:08;;;;;;;19.55;6.40;;;1.00;98.20;;;;;;5071441;28;20053;-66
2022/01/21 09:34:35;;;;;;;14.73;6.55;;;1.00;98.10;;;;;;5070190;28;20106;-66
2022/01/21 09:37:02;;;;;;;24.60;5.88;;;1.10;98.10;;;;;;5071431;28;20457;-64
2022/01/21 09:39:29;;;;;;;15.05;5.00;;;1.10;98.10;;;;;;5057416;28;20048;-65
2022/01/21 09:41:59;;;;;;;17.88;5.97;;;1.10;98.10;;;;;;5071921;28;20340;-64
2022/01/21 09:44:27;;;;;;;26.15;6.80;;;1.10;98.10;;;;;;5070813;28;20048;-67
2022/01/21 09:46:56;;;;;;;18.95;6.30;;;1.20;98.10;;;;;;5071234;28;20078;-65
2022/01/21 09:49:27;;;;;;;29.77;6.22;;;1.30;98.00;;;;;;5071000;28;20044;-65
2022/01/21 09:52:05;;;;;;;14.50;6.00;;;1.30;97.90;;;;;;5067295;28;20079;-65
2022/01/21 09:54:39;;;;;;;15.17;6.17;;;1.40;97.80;;;;;;5070812;28;20429;-67
2022/01/21 09:57:07;;;;;;;16.02;6.35;;;1.80;97.70;;;;;;5071548;28;20655;-66
2022/01/21 09:59:35;;;;;;;19.90;5.50;;;1.50;97.40;;;;;;5072185;28;20067;-66
2022/01/21 10:02:04;;;;;;;20.45;7.00;;;1.60;97.50;;;;;;5071963;28;20041;-66
2022/01/21 10:04:33;;;;;;;12.30;5.72;;;1.60;97.50;;;;;;5070813;28;20075;-66
2022/01/21 10:07:01;;;;;;;15.23;6.20;;;1.60;97.50;;;;;;5071463;28;20048;-66
2022/01/21 10:09:28;;;;;;;21.13;6.07;;;1.70;97.30;;;;;;5070977;28;20499;-66
2022/01/21 10:11:56;;;;;;;19.33;7.05;;;1.70;97.60;;;;;;5070199;28;20139;-67
2022/01/21 10:14:28;;;;;;;15.50;6.38;;;1.80;97.30;;;;;;5060440;28;20423;-65
2022/01/21 10:16:55;;;;;;;22.98;6.93;;;1.80;96.90;;;;;;5071485;28;20063;-65
2022/01/21 10:19:24;;;;;;;10.40;6.35;;;1.80;97.10;;;;;;5070338;28;20049;-66
2022/01/21 10:22:10;;;;;;;18.27;5.82;;;2.30;97.00;;;;;;5071689;28;20411;-66
2022/01/21 10:25:00;;;;;;;12.32;6.57;;;2.00;97.00;;;;;;5070125;28;20191;-67
2022/01/21 10:27:35;;;;;;;19.50;6.60;;;2.10;96.70;;;;;;5071184;28;20051;-66
2022/01/21 10:30:19;;;;;;;19.40;7.05;;;2.40;96.60;;;;;;5071977;28;20056;-66
2022/01/21 10:32:46;;;;;;;14.43;6.22;;;2.40;96.30;;;;;;5070969;28;20049;-66
2022/01/21 10:35:36;;;;;;;18.15;6.22;;;2.50;96.40;;;;;;5071640;28;20498;-66
2022/01/21 10:38:28;;;;;;;12.70;5.80;;;2.70;96.00;;;;;;5064111;28;20211;-65
2022/01/21 10:41:15;;;;;;;26.75;7.80;;;2.70;95.50;;;;;;5070137;28;20476;-66
2022/01/21 10:43:42;;;;;;;13.88;6.18;;;2.70;95.80;;;;;;5068057;28;20068;-66
2022/01/21 10:46:14;;;;;;;20.52;6.95;;;2.80;96.40;;;;;;5069607;28;20045;-66
2022/01/21 10:48:59;;;;;;;27.42;6.88;;;2.90;96.20;;;;;;5069508;28;20566;-65
2022/01/21 10:51:30;;;;;;;;;;;2.90;95.90;;;;;;5071270;28;20419;-65
2022/01/21 10:53:58;;;;;;;19.55;6.53;;;3.00;95.90;;;;;;5070974;28;19990;-65
2022/01/21 10:56:25;;;;;;;26.80;6.30;;;3.10;96.30;;;;;;5069774;28;20419;-66
2022/01/21 10:58:53;;;;;;;22.92;6.38;;;3.10;96.20;;;;;;5070347;28;20049;-67
2022/01/21 11:01:24;;;;;;;16.38;6.10;;;3.30;96.10;;;;;;5070779;28;20573;-66
2022/01/21 11:04:06;;;;;;;29.58;7.65;;;3.20;95.70;;;;;;5036833;28;20135;-66
2022/01/21 11:06:45;;;;;;;16.60;5.10;;;3.30;95.90;;;;;;5050577;28;20056;-65
2022/01/21 11:09:23;;;;;;;25.55;8.20;;;3.30;96.00;;;;;;5068985;28;20117;-66
2022/01/21 11:12:13;;;;;;;55.78;9.23;;;3.30;95.90;;;;;;5069764;28;20102;-66
2022/01/21 11:14:57;;;;;;;14.93;6.82;;;3.40;95.90;;;;;;5065375;28;20476;-66
2022/01/21 11:17:24;;;;;;;17.85;6.63;;;3.50;95.80;;;;;;5070278;28;20132;-65
2022/01/21 11:20:23;;;;;;;24.30;7.28;;;3.50;95.60;;;;;;5068642;28;20052;-66
2022/01/21 11:22:58;;;;;;;18.40;6.00;;;3.50;95.20;;;;;;5065623;28;20040;-66
2022/01/21 11:25:51;;;;;;;17.80;6.82;;;3.50;95.10;;;;;;5069915;28;20052;-65
2022/01/21 11:28:26;;;;;;;23.10;6.32;;;3.50;95.30;;;;;;5068407;28;20080;-65
2022/01/21 11:30:53;;;;;;;29.98;8.05;;;3.50;95.40;;;;;;5066663;28;20080;-64
2022/01/21 11:33:21;;;;;;;26.60;7.55;;;3.50;96.00;;;;;;5069054;28;20049;-67
2022/01/21 11:35:48;;;;;;;20.92;7.20;;;3.50;95.80;;;;;;5058852;28;20094;-66
2022/01/21 11:38:16;;;;;;;29.52;7.55;;;3.60;95.70;;;;;;5068875;28;20483;-66
2022/01/21 11:40:42;;;;;;;22.38;7.18;;;3.60;96.00;;;;;;5069711;28;20049;-67
2022/01/21 11:43:09;;;;;;;28.00;7.38;;;3.70;95.70;;;;;;5051905;28;20091;-67
2022/01/21 11:48:50;;;;;;;20.35;6.45;;;3.70;95.50;;;;;;5067242;28;20049;-65
2022/01/21 11:51:28;;;;;;;24.73;7.53;;;3.70;95.30;;;;;;5052550;28;20466;-67
2022/01/21 11:53:58;;;;;;;19.15;7.00;;;3.60;95.00;;;;;;5068782;28;20087;-66
2022/01/21 11:57:05;;;;;;;18.58;6.80;;;3.60;95.30;;;;;;5068852;28;20594;-65
2022/01/21 12:02:14;;;;;;;24.15;6.88;;;3.60;95.80;;;;;;5068380;28;20445;-65
2022/01/21 12:04:47;;;;;;;19.70;6.70;;;3.50;94.70;;;;;;5069086;28;20051;-66
2022/01/21 12:07:44;;;;;;;17.08;8.30;;;3.60;95.60;;;;;;5067795;28;20080;-66
2022/01/21 12:10:25;;;;;;;18.60;6.68;;;3.60;95.10;;;;;;5068680;28;20044;-67
2022/01/21 12:12:59;;;;;;;38.45;7.03;;;3.60;95.40;;;;;;5049653;28;20045;-65
2022/01/21 12:15:35;;;;;;;19.10;6.53;;;3.60;95.50;;;;;;5065337;28;20055;-65
2022/01/21 12:18:42;;;;;;;34.58;8.10;;;3.60;95.20;;;;;;5069029;28;20048;-65
2022/01/21 12:21:29;;;;;;;23.17;6.13;;;3.60;95.50;;;;;;5069158;28;20525;-65
2022/01/21 12:23:57;;;;;;;20.77;7.13;;;3.70;95.40;;;;;;5081385;28;20298;-66
2022/01/21 12:26:24;;;;;;;21.20;6.82;;;3.70;95.70;;;;;;5072050;28;20446;-65
2022/01/21 12:28:57;;;;;;;29.92;9.70;;;3.70;94.90;;;;;;5049092;28;20122;-65
2022/01/21 12:31:31;;;;;;;23.77;7.55;;;3.70;95.40;;;;;;5063919;28;20045;-65
2022/01/21 12:34:05;;;;;;;22.13;6.13;;;3.70;95.00;;;;;;5052151;28;20053;-66
2022/01/21 12:36:43;;;;;;;15.30;5.15;;;3.70;95.00;;;;;;5062976;28;20087;-66
2022/01/21 12:39:35;;;;;;;15.68;7.13;;;3.70;95.10;;;;;;5068422;28;20048;-65
2022/01/21 12:42:20;;;;;;;21.77;5.75;;;3.70;95.00;;;;;;5067629;28;20106;-67
2022/01/21 12:44:48;;;;;;;25.33;6.72;;;3.70;94.70;;;;;;5068797;28;20146;-66
2022/01/21 12:47:36;;;;;;;18.85;6.13;;;3.70;95.10;;;;;;5066228;28;20077;-65
2022/01/21 12:50:13;;;;;;;49.90;8.50;;;3.70;95.00;;;;;;5068990;28;20496;-67
2022/01/21 12:53:15;;;;;;;29.48;7.28;;;3.70;95.20;;;;;;5068113;28;20068;-67
2022/01/21 12:58:19;;;;;;;19.88;7.07;;;3.80;94.80;;;;;;5065672;28;20052;-67
2022/01/21 13:00:46;;;;;;;19.95;5.45;;;3.80;95.00;;;;;;5068019;28;20102;-66
2022/01/21 13:03:25;;;;;;;16.60;6.72;;;3.80;95.10;;;;;;5068312;28;20045;-66
2022/01/21 13:06:14;;;;;;;32.85;6.63;;;3.90;95.00;;;;;;5067088;28;20052;-65
2022/01/21 13:09:07;;;;;;;26.40;5.43;;;4.10;95.20;;;;;;5066401;28;20044;-67
2022/01/21 13:11:35;;;;;;;18.70;6.20;;;4.00;95.20;;;;;;5067357;28;20048;-67
2022/01/21 13:14:02;;;;;;;17.85;5.65;;;4.00;94.60;;;;;;5068262;28;20503;-66
2022/01/21 13:16:31;;;;;;;15.75;5.93;;;4.10;95.00;;;;;;5068253;28;20098;-67
2022/01/21 13:19:02;;;;;;;26.73;6.63;;;4.00;94.90;;;;;;5068418;28;20049;-66
2022/01/21 13:21:30;;;;;;;19.95;6.03;;;4.10;95.50;;;;;;5068236;28;20516;-66
2022/01/21 13:23:59;;;;;;;14.35;5.35;;;4.10;94.80;;;;;;5065391;28;20409;-65
2022/01/21 13:26:30;;;;;;;28.70;7.75;;;4.00;94.80;;;;;;5051584;28;20060;-65
2022/01/21 13:29:00;;;;;;;26.10;7.30;;;4.00;94.50;;;;;;5066751;28;20053;-66
2022/01/21 13:31:28;;;;;;;27.27;5.68;;;4.00;94.50;;;;;;5068662;28;20044;-65
2022/01/21 13:34:06;;;;;;;21.25;5.03;;;4.00;95.10;;;;;;5068420;28;20309;-65
2022/01/21 13:36:38;;;;;;;16.15;5.75;;;4.10;94.50;;;;;;5066576;28;20044;-65
2022/01/21 13:39:11;;;;;;;24.83;7.20;;;4.10;94.50;;;;;;5067729;28;20053;-65
2022/01/21 13:41:55;;;;;;;24.73;7.35;;;4.20;95.00;;;;;;5068160;28;20048;-66
2022/01/21 13:44:26;;;;;;;30.35;6.13;;;4.20;94.30;;;;;;5066472;28;20072;-69
2022/01/21 13:46:53;;;;;;;27.80;8.95;;;4.20;94.90;;;;;;5067814;28;20122;-66
2022/01/21 13:49:21;;;;;;;22.27;6.00;;;4.20;94.60;;;;;;5067315;28;20088;-66
2022/01/21 13:52:00;;;;;;;22.45;6.57;;;4.20;94.90;;;;;;5066980;28;20045;-66
2022/01/21 13:54:31;;;;;;;17.92;5.65;;;4.20;94.60;;;;;;5051009;28;20126;-66
2022/01/21 13:56:59;;;;;;;27.52;6.15;;;4.20;94.70;;;;;;5050349;28;20487;-66
2022/01/21 13:59:26;;;;;;;14.40;4.82;;;4.30;95.40;;;;;;5063107;28;20441;-66
2022/01/21 14:02:07;;;;;;;16.63;5.80;;;4.40;94.90;;;;;;5070923;28;20052;-66